sensor_id;sensor_type;location;lat;lon;timestamp;temperature;humidity
8489;DHT22;4281;45.772;12.852;2022-08-23T00:01:18;25.60;99.90
8489;DHT22;4281;45.772;12.852;2022-08-23T00:03:51;25.60;99.90
8489;DHT22;4281;45.772;12.852;2022-08-23T00:06:20;25.50;99.90
8489;DHT22;4281;45.772;12.852;2022-08-23T00:08:51;25.70;99.90
8489;DHT22;4281;45.772;12.852;2022-08-23T00:11:26;25.60;99.90
8489;DHT22;4281;45.772;12.852;2022-08-23T00:13:56;25.60;99.90
8489;DHT22;4281;45.772;12.852;2022-08-23T00:16:25;25.50;99.90
8489;DHT22;4281;45.772;12.852;2022-08-23T00:18:54;25.50;99.90
8489;DHT22;4281;45.772;12.852;2022-08-23T00:21:23;25.40;99.90
8489;DHT22;4281;45.772;12.852;2022-08-23T00:23:52;25.30;99.90
8489;DHT22;4281;45.772;12.852;2022-08-23T00:26:21;25.30;99.90
8489;DHT22;4281;45.772;12.852;2022-08-23T00:28:49;25.40;99.90
8489;DHT22;4281;45.772;12.852;2022-08-23T00:31:18;25.40;99.90
8489;DHT22;4281;45.772;12.852;2022-08-23T00:33:47;25.30;99.90
8489;DHT22;4281;45.772;12.852;2022-08-23T00:36:15;25.30;99.90
8489;DHT22;4281;45.772;12.852;2022-08-23T00:38:43;25.30;99.90
8489;DHT22;4281;45.772;12.852;2022-08-23T00:41:13;25.30;99.90
8489;DHT22;4281;45.772;12.852;2022-08-23T00:43:42;25.30;99.90
8489;DHT22;4281;45.772;12.852;2022-08-23T00:46:38;25.20;99.90
8489;DHT22;4281;45.772;12.852;2022-08-23T00:49:25;25.40;99.90
8489;DHT22;4281;45.772;12.852;2022-08-23T00:51:59;25.30;99.90
8489;DHT22;4281;45.772;12.852;2022-08-23T00:54:30;25.20;99.90
8489;DHT22;4281;45.772;12.852;2022-08-23T00:57:05;25.10;99.90
8489;DHT22;4281;45.772;12.852;2022-08-23T00:59:35;24.80;99.90
8489;DHT22;4281;45.772;12.852;2022-08-23T01:02:03;24.60;99.90
8489;DHT22;4281;45.772;12.852;2022-08-23T01:04:37;24.60;99.90
8489;DHT22;4281;45.772;12.852;2022-08-23T01:07:12;24.70;99.90
8489;DHT22;4281;45.772;12.852;2022-08-23T01:09:44;24.50;99.90
8489;DHT22;4281;45.772;12.852;2022-08-23T01:12:20;24.40;99.90
8489;DHT22;4281;45.772;12.852;2022-08-23T01:15:02;24.50;99.90
8489;DHT22;4281;45.772;12.852;2022-08-23T01:17:38;24.60;99.90
8489;DHT22;4281;45.772;12.852;2022-08-23T01:20:11;24.50;99.90
8489;DHT22;4281;45.772;12.852;2022-08-23T01:22:44;24.20;99.90
8489;DHT22;4281;45.772;12.852;2022-08-23T01:25:18;23.90;99.90
8489;DHT22;4281;45.772;12.852;2022-08-23T01:27:48;23.40;99.90
8489;DHT22;4281;45.772;12.852;2022-08-23T01:30:25;23.60;99.90
8489;DHT22;4281;45.772;12.852;2022-08-23T01:32:57;23.90;99.90
8489;DHT22;4281;45.772;12.852;2022-08-23T01:35:33;23.70;99.90
8489;DHT22;4281;45.772;12.852;2022-08-23T01:38:02;23.60;99.90
8489;DHT22;4281;45.772;12.852;2022-08-23T01:40:32;23.60;99.90
8489;DHT22;4281;45.772;12.852;2022-08-23T01:43:01;23.60;99.90
8489;DHT22;4281;45.772;12.852;2022-08-23T01:45:30;23.30;99.90
8489;DHT22;4281;45.772;12.852;2022-08-23T01:47:59;23.30;99.90
8489;DHT22;4281;45.772;12.852;2022-08-23T01:50:29;23.20;99.90
8489;DHT22;4281;45.772;12.852;2022-08-23T01:52:57;23.00;99.90
8489;DHT22;4281;45.772;12.852;2022-08-23T01:55:27;22.90;99.90
8489;DHT22;4281;45.772;12.852;2022-08-23T01:58:00;22.90;99.90
8489;DHT22;4281;45.772;12.852;2022-08-23T02:00:37;22.90;99.90
8489;DHT22;4281;45.772;12.852;2022-08-23T02:03:06;23.00;99.90
8489;DHT22;4281;45.772;12.852;2022-08-23T02:05:35;23.30;99.90
8489;DHT22;4281;45.772;12.852;2022-08-23T02:08:05;23.20;99.90
8489;DHT22;4281;45.772;12.852;2022-08-23T02:10:47;23.10;99.90
8489;DHT22;4281;45.772;12.852;2022-08-23T02:13:18;23.20;99.90
8489;DHT22;4281;45.772;12.852;2022-08-23T02:15:48;23.10;99.90
8489;DHT22;4281;45.772;12.852;2022-08-23T02:18:18;23.20;99.90
8489;DHT22;4281;45.772;12.852;2022-08-23T02:20:50;23.10;99.90
8489;DHT22;4281;45.772;12.852;2022-08-23T02:23:20;23.10;99.90
8489;DHT22;4281;45.772;12.852;2022-08-23T02:25:49;23.10;99.90
8489;DHT22;4281;45.772;12.852;2022-08-23T02:28:20;23.50;99.90
8489;DHT22;4281;45.772;12.852;2022-08-23T02:30:50;23.40;99.90
8489;DHT22;4281;45.772;12.852;2022-08-23T02:33:19;23.60;99.90
8489;DHT22;4281;45.772;12.852;2022-08-23T02:35:48;23.60;99.90
8489;DHT22;4281;45.772;12.852;2022-08-23T02:38:16;23.70;99.90
8489;DHT22;4281;45.772;12.852;2022-08-23T02:40:46;23.70;99.90
8489;DHT22;4281;45.772;12.852;2022-08-23T02:43:28;23.50;99.90
8489;DHT22;4281;45.772;12.852;2022-08-23T02:45:56;23.70;99.90
8489;DHT22;4281;45.772;12.852;2022-08-23T02:48:24;23.90;99.90
8489;DHT22;4281;45.772;12.852;2022-08-23T02:50:57;24.00;99.90
8489;DHT22;4281;45.772;12.852;2022-08-23T02:53:55;23.50;99.90
8489;DHT22;4281;45.772;12.852;2022-08-23T02:56:23;23.10;99.90
8489;DHT22;4281;45.772;12.852;2022-08-23T02:58:53;23.30;99.90
8489;DHT22;4281;45.772;12.852;2022-08-23T03:01:25;23.30;99.90
8489;DHT22;4281;45.772;12.852;2022-08-23T03:03:54;23.40;99.90
8489;DHT22;4281;45.772;12.852;2022-08-23T03:06:23;23.20;99.90
8489;DHT22;4281;45.772;12.852;2022-08-23T03:08:52;23.30;99.90
8489;DHT22;4281;45.772;12.852;2022-08-23T03:11:22;23.50;99.90
8489;DHT22;4281;45.772;12.852;2022-08-23T03:13:53;23.40;99.90
8489;DHT22;4281;45.772;12.852;2022-08-23T03:16:23;23.60;99.90
8489;DHT22;4281;45.772;12.852;2022-08-23T03:18:52;23.80;99.90
8489;DHT22;4281;45.772;12.852;2022-08-23T03:21:21;23.70;99.90
8489;DHT22;4281;45.772;12.852;2022-08-23T03:23:50;23.80;99.90
8489;DHT22;4281;45.772;12.852;2022-08-23T03:26:18;23.90;99.90
8489;DHT22;4281;45.772;12.852;2022-08-23T03:28:47;24.00;99.90
8489;DHT22;4281;45.772;12.852;2022-08-23T03:31:17;23.90;99.90
8489;DHT22;4281;45.772;12.852;2022-08-23T03:33:45;23.90;99.90
8489;DHT22;4281;45.772;12.852;2022-08-23T03:36:14;24.00;99.90
8489;DHT22;4281;45.772;12.852;2022-08-23T03:38:42;23.90;99.90
8489;DHT22;4281;45.772;12.852;2022-08-23T03:41:11;23.50;99.90
8489;DHT22;4281;45.772;12.852;2022-08-23T03:43:40;23.40;99.90
8489;DHT22;4281;45.772;12.852;2022-08-23T03:46:09;23.50;99.90
8489;DHT22;4281;45.772;12.852;2022-08-23T03:48:52;23.60;99.90
8489;DHT22;4281;45.772;12.852;2022-08-23T03:54:04;23.40;99.90
8489;DHT22;4281;45.772;12.852;2022-08-23T03:56:36;23.40;99.90
8489;DHT22;4281;45.772;12.852;2022-08-23T03:59:07;23.20;99.90
8489;DHT22;4281;45.772;12.852;2022-08-23T04:01:36;23.20;99.90
8489;DHT22;4281;45.772;12.852;2022-08-23T04:04:06;23.40;99.90
8489;DHT22;4281;45.772;12.852;2022-08-23T04:06:35;23.10;99.90
8489;DHT22;4281;45.772;12.852;2022-08-23T04:09:06;23.20;99.90
8489;DHT22;4281;45.772;12.852;2022-08-23T04:11:35;23.00;99.90
8489;DHT22;4281;45.772;12.852;2022-08-23T04:14:03;22.60;99.90
8489;DHT22;4281;45.772;12.852;2022-08-23T04:16:32;22.80;99.90
8489;DHT22;4281;45.772;12.852;2022-08-23T04:19:04;22.60;99.90
8489;DHT22;4281;45.772;12.852;2022-08-23T04:21:37;22.30;99.90
8489;DHT22;4281;45.772;12.852;2022-08-23T04:24:06;22.20;99.90
8489;DHT22;4281;45.772;12.852;2022-08-23T04:26:35;22.20;99.90
8489;DHT22;4281;45.772;12.852;2022-08-23T04:29:03;22.10;99.90
8489;DHT22;4281;45.772;12.852;2022-08-23T04:31:34;21.90;99.90
8489;DHT22;4281;45.772;12.852;2022-08-23T04:34:04;21.80;99.90
8489;DHT22;4281;45.772;12.852;2022-08-23T04:36:37;21.60;99.90
8489;DHT22;4281;45.772;12.852;2022-08-23T04:39:10;21.80;99.90
8489;DHT22;4281;45.772;12.852;2022-08-23T04:41:39;21.70;99.90
8489;DHT22;4281;45.772;12.852;2022-08-23T04:44:24;21.80;99.90
8489;DHT22;4281;45.772;12.852;2022-08-23T04:46:53;21.70;99.90
8489;DHT22;4281;45.772;12.852;2022-08-23T04:49:21;21.70;99.90
8489;DHT22;4281;45.772;12.852;2022-08-23T04:51:51;21.50;99.90
8489;DHT22;4281;45.772;12.852;2022-08-23T04:54:20;21.60;99.90
8489;DHT22;4281;45.772;12.852;2022-08-23T04:56:49;21.70;99.90
8489;DHT22;4281;45.772;12.852;2022-08-23T04:59:17;21.70;99.90
8489;DHT22;4281;45.772;12.852;2022-08-23T05:01:46;21.60;99.90
8489;DHT22;4281;45.772;12.852;2022-08-23T05:04:15;21.70;99.90
8489;DHT22;4281;45.772;12.852;2022-08-23T05:06:44;21.90;99.90
8489;DHT22;4281;45.772;12.852;2022-08-23T05:09:14;22.00;99.90
8489;DHT22;4281;45.772;12.852;2022-08-23T05:11:46;22.00;99.90
8489;DHT22;4281;45.772;12.852;2022-08-23T05:14:15;22.10;99.90
8489;DHT22;4281;45.772;12.852;2022-08-23T05:16:43;21.60;99.90
8489;DHT22;4281;45.772;12.852;2022-08-23T05:19:12;21.80;99.90
8489;DHT22;4281;45.772;12.852;2022-08-23T05:21:40;22.10;99.90
8489;DHT22;4281;45.772;12.852;2022-08-23T05:24:08;22.30;99.90
8489;DHT22;4281;45.772;12.852;2022-08-23T05:26:41;22.30;99.90
8489;DHT22;4281;45.772;12.852;2022-08-23T05:29:09;22.00;99.90
8489;DHT22;4281;45.772;12.852;2022-08-23T05:31:37;21.90;99.90
8489;DHT22;4281;45.772;12.852;2022-08-23T05:34:06;22.00;99.90
8489;DHT22;4281;45.772;12.852;2022-08-23T05:36:35;21.90;99.90
8489;DHT22;4281;45.772;12.852;2022-08-23T05:39:13;21.70;99.90
8489;DHT22;4281;45.772;12.852;2022-08-23T05:41:53;21.90;99.90
8489;DHT22;4281;45.772;12.852;2022-08-23T05:44:22;22.20;99.90
8489;DHT22;4281;45.772;12.852;2022-08-23T05:46:50;22.40;99.90
8489;DHT22;4281;45.772;12.852;2022-08-23T05:49:19;22.50;99.90
8489;DHT22;4281;45.772;12.852;2022-08-23T05:54:23;22.20;99.90
8489;DHT22;4281;45.772;12.852;2022-08-23T05:56:52;22.20;99.90
8489;DHT22;4281;45.772;12.852;2022-08-23T05:59:21;22.30;99.90
8489;DHT22;4281;45.772;12.852;2022-08-23T06:01:49;22.00;99.90
8489;DHT22;4281;45.772;12.852;2022-08-23T06:04:18;22.00;99.90
8489;DHT22;4281;45.772;12.852;2022-08-23T06:06:47;21.90;99.90
8489;DHT22;4281;45.772;12.852;2022-08-23T06:09:16;22.00;99.90
8489;DHT22;4281;45.772;12.852;2022-08-23T06:11:46;22.20;99.90
8489;DHT22;4281;45.772;12.852;2022-08-23T06:14:16;22.30;99.90
8489;DHT22;4281;45.772;12.852;2022-08-23T06:16:47;22.40;99.90
8489;DHT22;4281;45.772;12.852;2022-08-23T06:19:21;21.90;99.90
8489;DHT22;4281;45.772;12.852;2022-08-23T06:21:50;21.90;99.90
8489;DHT22;4281;45.772;12.852;2022-08-23T06:24:19;22.20;99.90
8489;DHT22;4281;45.772;12.852;2022-08-23T06:26:49;22.60;99.90
8489;DHT22;4281;45.772;12.852;2022-08-23T06:29:19;22.70;99.90
8489;DHT22;4281;45.772;12.852;2022-08-23T06:31:50;22.60;99.90
8489;DHT22;4281;45.772;12.852;2022-08-23T06:34:21;22.40;99.90
8489;DHT22;4281;45.772;12.852;2022-08-23T06:36:52;22.50;99.90
8489;DHT22;4281;45.772;12.852;2022-08-23T06:39:23;22.80;99.90
8489;DHT22;4281;45.772;12.852;2022-08-23T06:41:52;22.70;99.90
8489;DHT22;4281;45.772;12.852;2022-08-23T06:44:22;23.00;99.90
8489;DHT22;4281;45.772;12.852;2022-08-23T06:46:50;23.10;99.90
8489;DHT22;4281;45.772;12.852;2022-08-23T06:49:19;23.00;99.90
8489;DHT22;4281;45.772;12.852;2022-08-23T06:51:50;22.90;99.90
8489;DHT22;4281;45.772;12.852;2022-08-23T06:54:22;23.20;99.90
8489;DHT22;4281;45.772;12.852;2022-08-23T06:56:53;23.40;99.90
8489;DHT22;4281;45.772;12.852;2022-08-23T06:59:23;23.60;99.90
8489;DHT22;4281;45.772;12.852;2022-08-23T07:01:53;23.80;99.90
8489;DHT22;4281;45.772;12.852;2022-08-23T07:04:24;23.90;99.90
8489;DHT22;4281;45.772;12.852;2022-08-23T07:06:54;23.90;99.90
8489;DHT22;4281;45.772;12.852;2022-08-23T07:09:23;23.90;99.90
8489;DHT22;4281;45.772;12.852;2022-08-23T07:11:52;24.00;99.90
8489;DHT22;4281;45.772;12.852;2022-08-23T07:14:23;24.00;99.90
8489;DHT22;4281;45.772;12.852;2022-08-23T07:16:53;24.10;99.90
8489;DHT22;4281;45.772;12.852;2022-08-23T07:19:24;23.80;99.90
8489;DHT22;4281;45.772;12.852;2022-08-23T07:21:56;23.90;99.90
8489;DHT22;4281;45.772;12.852;2022-08-23T07:24:25;24.20;99.90
8489;DHT22;4281;45.772;12.852;2022-08-23T07:26:59;24.40;99.90
8489;DHT22;4281;45.772;12.852;2022-08-23T07:29:34;24.30;99.90
8489;DHT22;4281;45.772;12.852;2022-08-23T07:32:04;24.50;99.90
8489;DHT22;4281;45.772;12.852;2022-08-23T07:34:32;24.70;99.90
8489;DHT22;4281;45.772;12.852;2022-08-23T07:37:01;24.80;99.90
8489;DHT22;4281;45.772;12.852;2022-08-23T07:39:37;24.80;99.90
8489;DHT22;4281;45.772;12.852;2022-08-23T07:42:06;25.10;99.90
8489;DHT22;4281;45.772;12.852;2022-08-23T07:44:52;25.20;99.90
8489;DHT22;4281;45.772;12.852;2022-08-23T07:47:23;25.30;99.90
8489;DHT22;4281;45.772;12.852;2022-08-23T07:49:55;25.40;99.90
8489;DHT22;4281;45.772;12.852;2022-08-23T07:52:24;25.40;99.90
8489;DHT22;4281;45.772;12.852;2022-08-23T07:54:53;25.50;99.90
8489;DHT22;4281;45.772;12.852;2022-08-23T07:57:21;25.50;99.90
8489;DHT22;4281;45.772;12.852;2022-08-23T07:59:51;25.60;99.90
8489;DHT22;4281;45.772;12.852;2022-08-23T08:02:21;25.60;99.90
8489;DHT22;4281;45.772;12.852;2022-08-23T08:04:51;25.60;99.90
8489;DHT22;4281;45.772;12.852;2022-08-23T08:07:19;25.70;99.90
8489;DHT22;4281;45.772;12.852;2022-08-23T08:09:48;25.70;99.90
8489;DHT22;4281;45.772;12.852;2022-08-23T08:12:17;25.70;99.90
8489;DHT22;4281;45.772;12.852;2022-08-23T08:14:46;25.70;99.90
8489;DHT22;4281;45.772;12.852;2022-08-23T08:17:16;25.70;99.90
8489;DHT22;4281;45.772;12.852;2022-08-23T08:19:48;25.80;99.90
8489;DHT22;4281;45.772;12.852;2022-08-23T08:22:17;25.90;99.90
8489;DHT22;4281;45.772;12.852;2022-08-23T08:24:45;25.90;99.90
8489;DHT22;4281;45.772;12.852;2022-08-23T08:27:14;25.90;99.90
8489;DHT22;4281;45.772;12.852;2022-08-23T08:29:42;26.10;99.90
8489;DHT22;4281;45.772;12.852;2022-08-23T08:32:10;26.10;99.90
8489;DHT22;4281;45.772;12.852;2022-08-23T08:34:41;26.20;99.90
8489;DHT22;4281;45.772;12.852;2022-08-23T08:37:10;26.10;99.90
8489;DHT22;4281;45.772;12.852;2022-08-23T08:39:38;26.20;99.90
8489;DHT22;4281;45.772;12.852;2022-08-23T08:42:42;26.20;99.90
8489;DHT22;4281;45.772;12.852;2022-08-23T08:45:21;26.30;99.90
8489;DHT22;4281;45.772;12.852;2022-08-23T08:47:55;26.30;99.90
8489;DHT22;4281;45.772;12.852;2022-08-23T08:50:31;26.40;99.90
8489;DHT22;4281;45.772;12.852;2022-08-23T08:53:05;26.40;99.90
8489;DHT22;4281;45.772;12.852;2022-08-23T08:55:39;26.40;99.90
8489;DHT22;4281;45.772;12.852;2022-08-23T08:58:16;26.50;99.90
8489;DHT22;4281;45.772;12.852;2022-08-23T09:00:46;26.50;99.90
8489;DHT22;4281;45.772;12.852;2022-08-23T09:03:21;26.70;99.90
8489;DHT22;4281;45.772;12.852;2022-08-23T09:05:56;26.90;99.90
8489;DHT22;4281;45.772;12.852;2022-08-23T09:08:39;26.80;99.90
8489;DHT22;4281;45.772;12.852;2022-08-23T09:11:18;26.80;99.90
8489;DHT22;4281;45.772;12.852;2022-08-23T09:16:50;27.00;99.90
8489;DHT22;4281;45.772;12.852;2022-08-23T09:19:21;26.90;99.90
8489;DHT22;4281;45.772;12.852;2022-08-23T09:21:57;27.20;99.90
8489;DHT22;4281;45.772;12.852;2022-08-23T09:24:29;27.20;99.90
8489;DHT22;4281;45.772;12.852;2022-08-23T09:26:58;27.20;99.90
8489;DHT22;4281;45.772;12.852;2022-08-23T09:29:29;27.30;99.90
8489;DHT22;4281;45.772;12.852;2022-08-23T09:31:59;27.40;99.90
8489;DHT22;4281;45.772;12.852;2022-08-23T09:34:39;27.40;99.90
8489;DHT22;4281;45.772;12.852;2022-08-23T09:37:17;27.60;99.90
8489;DHT22;4281;45.772;12.852;2022-08-23T09:39:49;27.60;99.90
8489;DHT22;4281;45.772;12.852;2022-08-23T09:42:30;27.80;99.90
8489;DHT22;4281;45.772;12.852;2022-08-23T09:44:59;27.60;99.90
8489;DHT22;4281;45.772;12.852;2022-08-23T09:47:32;27.50;99.90
8489;DHT22;4281;45.772;12.852;2022-08-23T09:50:18;27.50;99.90
8489;DHT22;4281;45.772;12.852;2022-08-23T09:52:54;27.50;99.90
8489;DHT22;4281;45.772;12.852;2022-08-23T09:55:30;27.50;99.90
8489;DHT22;4281;45.772;12.852;2022-08-23T09:58:01;27.50;99.90
8489;DHT22;4281;45.772;12.852;2022-08-23T10:00:32;27.40;99.90
8489;DHT22;4281;45.772;12.852;2022-08-23T10:03:21;27.40;99.90
8489;DHT22;4281;45.772;12.852;2022-08-23T10:05:52;27.40;99.90
8489;DHT22;4281;45.772;12.852;2022-08-23T10:08:24;27.50;99.90
8489;DHT22;4281;45.772;12.852;2022-08-23T10:10:57;27.50;99.90
8489;DHT22;4281;45.772;12.852;2022-08-23T10:13:30;27.60;99.90
8489;DHT22;4281;45.772;12.852;2022-08-23T10:16:06;27.70;99.90
8489;DHT22;4281;45.772;12.852;2022-08-23T10:18:49;27.70;99.90
8489;DHT22;4281;45.772;12.852;2022-08-23T10:21:24;28.00;99.90
8489;DHT22;4281;45.772;12.852;2022-08-23T10:24:17;28.00;99.90
8489;DHT22;4281;45.772;12.852;2022-08-23T10:26:58;28.20;99.90
8489;DHT22;4281;45.772;12.852;2022-08-23T10:29:36;28.20;99.90
8489;DHT22;4281;45.772;12.852;2022-08-23T10:32:13;28.20;99.90
8489;DHT22;4281;45.772;12.852;2022-08-23T10:34:52;28.20;99.90
8489;DHT22;4281;45.772;12.852;2022-08-23T10:37:38;28.20;99.90
8489;DHT22;4281;45.772;12.852;2022-08-23T10:40:15;28.10;99.90
8489;DHT22;4281;45.772;12.852;2022-08-23T10:42:51;28.30;99.90
8489;DHT22;4281;45.772;12.852;2022-08-23T10:45:25;28.40;99.90
8489;DHT22;4281;45.772;12.852;2022-08-23T10:48:11;28.50;99.90
8489;DHT22;4281;45.772;12.852;2022-08-23T10:50:50;28.60;99.90
8489;DHT22;4281;45.772;12.852;2022-08-23T10:53:26;28.40;99.90
8489;DHT22;4281;45.772;12.852;2022-08-23T10:55:59;28.50;99.90
8489;DHT22;4281;45.772;12.852;2022-08-23T10:58:38;28.60;99.90
8489;DHT22;4281;45.772;12.852;2022-08-23T11:01:12;28.70;99.90
8489;DHT22;4281;45.772;12.852;2022-08-23T11:03:44;28.60;99.90
8489;DHT22;4281;45.772;12.852;2022-08-23T11:06:26;28.50;99.90
8489;DHT22;4281;45.772;12.852;2022-08-23T11:09:02;28.70;99.90
8489;DHT22;4281;45.772;12.852;2022-08-23T11:11:47;28.70;99.90
8489;DHT22;4281;45.772;12.852;2022-08-23T11:14:26;29.00;99.90
8489;DHT22;4281;45.772;12.852;2022-08-23T11:17:02;29.00;99.90
8489;DHT22;4281;45.772;12.852;2022-08-23T11:19:51;28.90;99.90
8489;DHT22;4281;45.772;12.852;2022-08-23T11:22:21;28.90;99.90
8489;DHT22;4281;45.772;12.852;2022-08-23T11:24:57;29.00;99.90
8489;DHT22;4281;45.772;12.852;2022-08-23T11:27:35;29.20;99.90
8489;DHT22;4281;45.772;12.852;2022-08-23T11:33:18;29.50;99.90
8489;DHT22;4281;45.772;12.852;2022-08-23T11:35:49;29.50;99.90
8489;DHT22;4281;45.772;12.852;2022-08-23T11:39:01;29.20;99.90
8489;DHT22;4281;45.772;12.852;2022-08-23T11:41:31;29.20;99.90
8489;DHT22;4281;45.772;12.852;2022-08-23T11:44:24;29.40;99.90
8489;DHT22;4281;45.772;12.852;2022-08-23T11:46:59;29.30;99.90
8489;DHT22;4281;45.772;12.852;2022-08-23T11:50:03;29.40;99.90
8489;DHT22;4281;45.772;12.852;2022-08-23T11:52:56;29.50;99.90
8489;DHT22;4281;45.772;12.852;2022-08-23T11:55:53;29.40;99.90
8489;DHT22;4281;45.772;12.852;2022-08-23T11:58:31;29.40;99.90
8489;DHT22;4281;45.772;12.852;2022-08-23T12:01:12;29.60;99.90
8489;DHT22;4281;45.772;12.852;2022-08-23T12:03:53;29.50;99.90
8489;DHT22;4281;45.772;12.852;2022-08-23T12:06:38;29.60;99.90
8489;DHT22;4281;45.772;12.852;2022-08-23T12:09:53;29.70;99.90
8489;DHT22;4281;45.772;12.852;2022-08-23T12:12:30;29.70;99.90
8489;DHT22;4281;45.772;12.852;2022-08-23T12:15:08;29.40;99.90
8489;DHT22;4281;45.772;12.852;2022-08-23T12:18:05;29.20;99.90
8489;DHT22;4281;45.772;12.852;2022-08-23T12:20:36;29.00;99.90
8489;DHT22;4281;45.772;12.852;2022-08-23T12:23:18;29.00;99.90
8489;DHT22;4281;45.772;12.852;2022-08-23T12:25:58;28.90;99.90
8489;DHT22;4281;45.772;12.852;2022-08-23T12:28:35;29.00;99.90
8489;DHT22;4281;45.772;12.852;2022-08-23T12:31:14;29.10;99.90
8489;DHT22;4281;45.772;12.852;2022-08-23T12:33:54;29.30;99.90
8489;DHT22;4281;45.772;12.852;2022-08-23T12:36:32;29.40;99.90
8489;DHT22;4281;45.772;12.852;2022-08-23T12:39:18;29.50;99.90
8489;DHT22;4281;45.772;12.852;2022-08-23T12:41:51;29.70;99.90
8489;DHT22;4281;45.772;12.852;2022-08-23T12:44:23;29.80;99.90
8489;DHT22;4281;45.772;12.852;2022-08-23T12:46:52;29.90;99.90
8489;DHT22;4281;45.772;12.852;2022-08-23T12:49:27;30.10;99.90
8489;DHT22;4281;45.772;12.852;2022-08-23T12:51:59;30.10;99.90
8489;DHT22;4281;45.772;12.852;2022-08-23T12:54:34;30.20;99.90
8489;DHT22;4281;45.772;12.852;2022-08-23T12:57:05;30.00;99.90
8489;DHT22;4281;45.772;12.852;2022-08-23T12:59:40;30.10;99.90
8489;DHT22;4281;45.772;12.852;2022-08-23T13:02:19;30.00;99.90
8489;DHT22;4281;45.772;12.852;2022-08-23T13:04:53;30.00;99.90
8489;DHT22;4281;45.772;12.852;2022-08-23T13:07:24;29.90;99.90
8489;DHT22;4281;45.772;12.852;2022-08-23T13:09:53;29.80;99.90
8489;DHT22;4281;45.772;12.852;2022-08-23T13:12:23;29.90;99.90
8489;DHT22;4281;45.772;12.852;2022-08-23T13:14:53;29.90;99.90
8489;DHT22;4281;45.772;12.852;2022-08-23T13:17:33;29.80;99.90
8489;DHT22;4281;45.772;12.852;2022-08-23T13:20:16;29.70;99.90
8489;DHT22;4281;45.772;12.852;2022-08-23T13:22:57;29.70;99.90
8489;DHT22;4281;45.772;12.852;2022-08-23T13:25:28;29.90;99.90
8489;DHT22;4281;45.772;12.852;2022-08-23T13:28:00;29.80;99.90
8489;DHT22;4281;45.772;12.852;2022-08-23T13:30:31;29.80;99.90
8489;DHT22;4281;45.772;12.852;2022-08-23T13:33:20;29.70;99.90
8489;DHT22;4281;45.772;12.852;2022-08-23T13:35:52;30.00;99.90
8489;DHT22;4281;45.772;12.852;2022-08-23T13:38:39;29.90;99.90
8489;DHT22;4281;45.772;12.852;2022-08-23T13:41:10;29.80;99.90
8489;DHT22;4281;45.772;12.852;2022-08-23T13:43:47;29.80;99.90
8489;DHT22;4281;45.772;12.852;2022-08-23T13:46:20;29.90;99.90
8489;DHT22;4281;45.772;12.852;2022-08-23T13:48:57;30.10;99.90
8489;DHT22;4281;45.772;12.852;2022-08-23T13:51:30;30.00;99.90
8489;DHT22;4281;45.772;12.852;2022-08-23T13:54:02;30.10;99.90
8489;DHT22;4281;45.772;12.852;2022-08-23T13:56:34;30.10;99.90
8489;DHT22;4281;45.772;12.852;2022-08-23T13:59:15;30.20;99.90
8489;DHT22;4281;45.772;12.852;2022-08-23T14:01:44;30.10;99.90
8489;DHT22;4281;45.772;12.852;2022-08-23T14:04:13;30.00;99.90
8489;DHT22;4281;45.772;12.852;2022-08-23T14:06:44;29.90;99.90
8489;DHT22;4281;45.772;12.852;2022-08-23T14:09:15;30.00;99.90
8489;DHT22;4281;45.772;12.852;2022-08-23T14:11:43;30.00;99.90
8489;DHT22;4281;45.772;12.852;2022-08-23T14:14:13;30.00;99.90
8489;DHT22;4281;45.772;12.852;2022-08-23T14:16:42;30.10;99.90
8489;DHT22;4281;45.772;12.852;2022-08-23T14:19:11;30.10;99.90
8489;DHT22;4281;45.772;12.852;2022-08-23T14:21:45;29.90;99.90
8489;DHT22;4281;45.772;12.852;2022-08-23T14:24:13;29.80;99.90
8489;DHT22;4281;45.772;12.852;2022-08-23T14:26:42;29.90;99.90
8489;DHT22;4281;45.772;12.852;2022-08-23T14:29:18;29.90;99.90
8489;DHT22;4281;45.772;12.852;2022-08-23T14:31:48;29.80;99.90
8489;DHT22;4281;45.772;12.852;2022-08-23T14:34:17;29.50;99.90
8489;DHT22;4281;45.772;12.852;2022-08-23T14:36:47;29.60;99.90
8489;DHT22;4281;45.772;12.852;2022-08-23T14:39:37;29.70;99.90
8489;DHT22;4281;45.772;12.852;2022-08-23T14:42:06;29.80;99.90
8489;DHT22;4281;45.772;12.852;2022-08-23T14:44:35;29.90;99.90
8489;DHT22;4281;45.772;12.852;2022-08-23T14:47:03;30.00;99.90
8489;DHT22;4281;45.772;12.852;2022-08-23T14:49:32;29.90;99.90
8489;DHT22;4281;45.772;12.852;2022-08-23T14:52:02;30.00;99.90
8489;DHT22;4281;45.772;12.852;2022-08-23T14:54:31;29.90;99.90
8489;DHT22;4281;45.772;12.852;2022-08-23T14:57:00;29.90;99.90
8489;DHT22;4281;45.772;12.852;2022-08-23T14:59:28;30.00;99.90
8489;DHT22;4281;45.772;12.852;2022-08-23T15:01:57;30.00;99.90
8489;DHT22;4281;45.772;12.852;2022-08-23T15:04:26;30.10;99.90
8489;DHT22;4281;45.772;12.852;2022-08-23T15:07:02;29.90;99.90
8489;DHT22;4281;45.772;12.852;2022-08-23T15:09:46;29.90;99.90
8489;DHT22;4281;45.772;12.852;2022-08-23T15:12:15;29.80;99.90
8489;DHT22;4281;45.772;12.852;2022-08-23T15:15:06;29.70;99.90
8489;DHT22;4281;45.772;12.852;2022-08-23T15:17:43;29.80;99.90
8489;DHT22;4281;45.772;12.852;2022-08-23T15:20:12;29.80;99.90
8489;DHT22;4281;45.772;12.852;2022-08-23T15:22:42;29.70;99.90
8489;DHT22;4281;45.772;12.852;2022-08-23T15:25:23;29.80;99.90
8489;DHT22;4281;45.772;12.852;2022-08-23T15:27:51;29.90;99.90
8489;DHT22;4281;45.772;12.852;2022-08-23T15:30:23;29.90;99.90
8489;DHT22;4281;45.772;12.852;2022-08-23T15:32:59;29.80;99.90
8489;DHT22;4281;45.772;12.852;2022-08-23T15:35:28;29.70;99.90
8489;DHT22;4281;45.772;12.852;2022-08-23T15:38:01;29.60;99.90
8489;DHT22;4281;45.772;12.852;2022-08-23T15:40:29;29.60;99.90
8489;DHT22;4281;45.772;12.852;2022-08-23T15:42:57;29.70;99.90
8489;DHT22;4281;45.772;12.852;2022-08-23T15:45:26;29.60;99.90
8489;DHT22;4281;45.772;12.852;2022-08-23T15:47:55;29.60;99.90
8489;DHT22;4281;45.772;12.852;2022-08-23T15:50:27;29.70;99.90
8489;DHT22;4281;45.772;12.852;2022-08-23T15:55:31;29.50;99.90
8489;DHT22;4281;45.772;12.852;2022-08-23T15:57:59;29.50;99.90
8489;DHT22;4281;45.772;12.852;2022-08-23T16:00:28;29.60;99.90
8489;DHT22;4281;45.772;12.852;2022-08-23T16:02:57;29.50;99.90
8489;DHT22;4281;45.772;12.852;2022-08-23T16:05:47;29.50;99.90
8489;DHT22;4281;45.772;12.852;2022-08-23T16:08:19;29.30;99.90
8489;DHT22;4281;45.772;12.852;2022-08-23T16:10:49;29.30;99.90
8489;DHT22;4281;45.772;12.852;2022-08-23T16:13:19;29.30;99.90
8489;DHT22;4281;45.772;12.852;2022-08-23T16:15:48;29.30;99.90
8489;DHT22;4281;45.772;12.852;2022-08-23T16:18:17;29.20;99.90
8489;DHT22;4281;45.772;12.852;2022-08-23T16:20:45;29.30;99.90
8489;DHT22;4281;45.772;12.852;2022-08-23T16:23:14;29.30;99.90
8489;DHT22;4281;45.772;12.852;2022-08-23T16:25:42;29.40;99.90
8489;DHT22;4281;45.772;12.852;2022-08-23T16:28:12;29.20;99.90
8489;DHT22;4281;45.772;12.852;2022-08-23T16:30:40;29.10;99.90
8489;DHT22;4281;45.772;12.852;2022-08-23T16:33:09;29.10;99.90
8489;DHT22;4281;45.772;12.852;2022-08-23T16:35:37;29.20;99.90